Time;durP1;ratioP1;P1;durP2;ratioP2;P2;SDS_P1;SDS_P2;PMS_P1;PMS_P2;Temp;Humidity;BMP_temperature;BMP_pressure;BME280_temperature;BME280_humidity;BME280_pressure;Samples;Min_cycle;Max_cycle;Signal;HPM_P1;HPM_P2
2023/03/17 00:01:53;;;;;;;2.20;1.05;;;17.80;1.00;;;;;;5094793;28;20209;-43
2023/03/17 00:04:23;;;;;;;1.52;0.68;;;17.80;1.00;;;;;;5093759;28;20549;-42
2023/03/17 00:06:50;;;;;;;1.67;0.98;;;17.80;1.00;;;;;;5093846;28;20078;-43
2023/03/17 00:09:18;;;;;;;2.55;0.90;;;17.70;1.00;;;;;;5094703;28;20052;-44
2023/03/17 00:11:46;;;;;;;1.67;1.35;;;17.70;1.00;;;;;;5094421;28;20487;-44
2023/03/17 00:14:13;;;;;;;2.58;1.10;;;17.70;1.00;;;;;;5093863;28;20048;-43
2023/03/17 00:16:43;;;;;;;1.48;0.82;;;17.70;1.00;;;;;;5094474;28;20040;-43
2023/03/17 00:19:20;;;;;;;2.28;1.00;;;17.60;1.00;;;;;;5094503;28;20495;-43
2023/03/17 00:21:48;;;;;;;1.73;1.05;;;17.60;1.00;;;;;;5094430;28;20127;-44
2023/03/17 00:24:15;;;;;;;1.63;0.85;;;17.60;1.00;;;;;;5092860;28;20140;-43
2023/03/17 00:26:42;;;;;;;1.90;1.10;;;17.60;1.00;;;;;;5087007;28;20727;-43
2023/03/17 00:29:09;;;;;;;6.20;1.00;;;17.50;1.00;;;;;;5094049;28;20105;-44
2023/03/17 00:31:37;;;;;;;4.95;1.88;;;17.50;1.00;;;;;;5084922;28;20044;-43
2023/03/17 00:34:06;;;;;;;2.90;1.42;;;17.50;1.00;;;;;;5093370;28;20036;-44
2023/03/17 00:36:33;;;;;;;2.15;1.10;;;17.50;1.00;;;;;;5083247;28;20044;-44
2023/03/17 00:39:02;;;;;;;1.60;1.00;;;17.50;1.00;;;;;;5084158;28;20040;-43
2023/03/17 00:41:29;;;;;;;2.50;1.30;;;17.40;1.00;;;;;;5075773;28;20055;-44
2023/03/17 00:43:56;;;;;;;2.50;0.93;;;17.40;1.00;;;;;;5074936;28;20044;-42
2023/03/17 00:46:34;;;;;;;3.92;1.52;;;17.40;1.00;;;;;;5093823;28;20491;-43
2023/03/17 00:49:08;;;;;;;2.10;1.20;;;17.40;1.00;;;;;;5093876;28;20415;-43
2023/03/17 00:51:39;;;;;;;2.50;1.17;;;17.30;1.00;;;;;;5070045;28;20036;-43
2023/03/17 00:54:06;;;;;;;2.63;1.25;;;17.30;1.00;;;;;;5093080;28;20040;-43
2023/03/17 00:56:33;;;;;;;2.50;1.00;;;17.30;1.00;;;;;;5092305;28;20097;-41
2023/03/17 00:59:00;;;;;;;1.60;0.98;;;17.30;1.00;;;;;;5091871;22;20044;-36
2023/03/17 01:01:27;;;;;;;3.88;1.00;;;17.30;1.00;;;;;;5093235;28;20530;-36
2023/03/17 01:03:53;;;;;;;2.47;1.20;;;17.30;1.00;;;;;;5092776;28;20059;-36
2023/03/17 01:06:20;;;;;;;3.03;1.08;;;17.20;1.00;;;;;;5093305;28;20043;-36
2023/03/17 01:08:48;;;;;;;2.22;1.30;;;17.20;1.00;;;;;;5093362;28;20128;-36
2023/03/17 01:11:17;;;;;;;1.75;0.88;;;17.20;1.00;;;;;;5093387;28;20412;-36
2023/03/17 01:13:46;;;;;;;2.13;1.20;;;17.20;1.00;;;;;;5074740;28;20052;-36
2023/03/17 01:16:14;;;;;;;1.40;0.90;;;17.10;1.00;;;;;;5074729;28;20055;-36
2023/03/17 01:18:42;;;;;;;1.55;0.88;;;17.10;1.00;;;;;;5093286;28;20040;-36
2023/03/17 01:21:09;;;;;;;2.42;1.48;;;17.10;1.00;;;;;;5071523;28;20514;-36
2023/03/17 01:23:36;;;;;;;3.20;1.48;;;17.10;1.00;;;;;;5074269;28;20555;-36
2023/03/17 01:26:03;;;;;;;3.10;1.50;;;17.10;1.00;;;;;;5093341;28;20044;-36
2023/03/17 01:28:30;;;;;;;1.63;1.13;;;17.10;1.00;;;;;;5093077;28;20075;-36
2023/03/17 01:30:56;;;;;;;1.45;1.05;;;17.00;1.00;;;;;;5092953;28;20085;-36
2023/03/17 01:33:24;;;;;;;4.20;1.42;;;17.10;1.00;;;;;;5074136;28;20039;-36
2023/03/17 01:35:51;;;;;;;1.63;1.33;;;17.00;1.00;;;;;;5074885;28;20052;-36
2023/03/17 01:38:18;;;;;;;2.50;1.33;;;17.00;1.00;;;;;;5074613;28;20048;-36
2023/03/17 01:40:50;;;;;;;1.58;1.10;;;17.00;1.00;;;;;;5074754;28;20050;-36
2023/03/17 01:43:29;;;;;;;3.00;1.40;;;17.00;1.00;;;;;;5073788;28;20147;-36
2023/03/17 01:46:19;;;;;;;1.88;1.13;;;17.00;1.00;;;;;;5074644;28;20079;-36
2023/03/17 01:49:22;;;;;;;1.88;1.13;;;16.90;1.00;;;;;;5092808;28;20503;-36
2023/03/17 01:51:57;;;;;;;3.33;1.40;;;16.90;1.00;;;;;;5070309;28;20063;-36
2023/03/17 01:54:38;;;;;;;2.28;1.23;;;16.90;1.00;;;;;;5091982;28;20411;-36
2023/03/17 01:57:14;;;;;;;2.63;1.48;;;16.90;1.00;;;;;;5074448;28;20079;-36
2023/03/17 01:59:52;;;;;;;3.35;1.75;;;16.90;1.00;;;;;;5074403;28;20044;-36
2023/03/17 02:02:28;;;;;;;1.40;0.90;;;16.80;1.00;;;;;;5092350;28;20051;-36
2023/03/17 02:04:56;;;;;;;2.70;1.25;;;16.80;1.00;;;;;;5074083;28;20094;-36
2023/03/17 02:07:25;;;;;;;1.90;1.20;;;16.80;1.00;;;;;;5092291;28;20051;-36
2023/03/17 02:09:54;;;;;;;1.95;1.27;;;16.80;1.00;;;;;;5092922;28;20043;-36
2023/03/17 02:12:23;;;;;;;1.83;1.13;;;16.80;1.00;;;;;;5073684;28;20040;-36
2023/03/17 02:14:51;;;;;;;1.95;1.10;;;16.80;1.00;;;;;;5073822;28;20036;-36
2023/03/17 02:17:20;;;;;;;2.40;1.55;;;16.80;1.00;;;;;;5074038;28;20437;-36
2023/03/17 02:19:48;;;;;;;2.13;1.58;;;16.70;1.00;;;;;;5074208;28;20068;-36
2023/03/17 02:22:17;;;;;;;2.92;1.05;;;16.70;1.00;;;;;;5091836;28;20109;-36
2023/03/17 02:24:51;;;;;;;1.88;1.20;;;16.70;1.00;;;;;;5091789;28;20051;-36
2023/03/17 02:27:21;;;;;;;1.80;1.05;;;16.70;1.00;;;;;;5073909;28;20047;-36
2023/03/17 02:29:49;;;;;;;1.30;1.08;;;16.70;1.00;;;;;;5091771;28;20048;-36
2023/03/17 02:32:18;;;;;;;2.67;1.42;;;16.60;1.00;;;;;;5091530;28;20032;-36
2023/03/17 02:34:47;;;;;;;4.28;1.45;;;16.60;1.00;;;;;;5091752;28;20044;-36
2023/03/17 02:37:15;;;;;;;2.53;1.10;;;16.60;1.00;;;;;;5092026;28;20053;-36
2023/03/17 02:39:42;;;;;;;1.77;1.17;;;16.60;1.00;;;;;;5091978;28;20044;-36
2023/03/17 02:42:09;;;;;;;2.28;1.27;;;16.60;1.00;;;;;;5073949;28;20052;-36
2023/03/17 02:44:36;;;;;;;2.05;1.20;;;16.60;1.00;;;;;;5091449;28;20552;-36
2023/03/17 02:47:03;;;;;;;4.18;1.40;;;16.50;1.00;;;;;;5073865;28;20544;-40
2023/03/17 02:49:31;;;;;;;2.33;1.23;;;16.50;1.00;;;;;;5091762;28;20040;-36
2023/03/17 02:51:58;;;;;;;2.45;1.52;;;16.50;1.00;;;;;;5091710;28;20234;-36
2023/03/17 02:54:25;;;;;;;4.05;1.30;;;16.60;1.00;;;;;;5091109;28;20089;-36
2023/03/17 02:56:52;;;;;;;2.60;1.15;;;16.50;1.00;;;;;;5091925;28;20040;-36
2023/03/17 02:59:18;;;;;;;2.72;1.02;;;16.50;1.00;;;;;;5091751;28;20048;-36
2023/03/17 03:01:47;;;;;;;2.78;1.30;;;16.50;1.00;;;;;;5091833;28;20143;-36
2023/03/17 03:04:14;;;;;;;2.10;1.27;;;16.50;1.00;;;;;;5090922;28;20044;-36
2023/03/17 03:06:41;;;;;;;2.03;1.20;;;16.50;1.00;;;;;;5091679;28;20122;-36
2023/03/17 03:09:09;;;;;;;2.10;1.02;;;16.40;1.00;;;;;;5091652;28;20062;-36
2023/03/17 03:11:36;;;;;;;3.15;1.42;;;16.50;1.00;;;;;;5091707;28;20036;-36
2023/03/17 03:14:04;;;;;;;2.20;1.45;;;16.40;1.00;;;;;;5091001;28;20064;-37
2023/03/17 03:16:30;;;;;;;2.17;1.38;;;16.40;1.00;;;;;;5091733;28;20483;-36
2023/03/17 03:18:57;;;;;;;3.25;1.55;;;16.40;1.00;;;;;;5091457;28;20454;-36
2023/03/17 03:21:24;;;;;;;3.35;1.50;;;16.40;1.00;;;;;;5091657;28;20131;-36
2023/03/17 03:23:51;;;;;;;2.30;1.50;;;16.40;1.00;;;;;;5090740;28;20044;-36
2023/03/17 03:26:18;;;;;;;3.40;1.65;;;16.40;1.00;;;;;;5091594;28;20095;-36
2023/03/17 03:28:45;;;;;;;4.72;1.52;;;16.40;1.00;;;;;;5091473;28;20047;-36
2023/03/17 03:31:12;;;;;;;2.78;1.80;;;16.40;1.00;;;;;;5091437;28;20064;-36
2023/03/17 03:33:41;;;;;;;2.78;1.50;;;16.30;1.00;;;;;;5090636;28;20071;-36
2023/03/17 03:36:07;;;;;;;2.45;1.70;;;16.30;1.00;;;;;;5091484;28;20063;-36
2023/03/17 03:38:35;;;;;;;1.98;1.08;;;16.30;1.00;;;;;;5091398;28;20048;-36
2023/03/17 03:41:02;;;;;;;4.38;1.63;;;16.30;1.00;;;;;;5094685;28;20043;-36
2023/03/17 03:43:28;;;;;;;2.33;1.30;;;16.30;1.00;;;;;;5094497;28;20127;-36
2023/03/17 03:45:55;;;;;;;2.63;1.30;;;16.30;1.00;;;;;;5095060;28;20048;-36
2023/03/17 03:48:22;;;;;;;2.70;1.30;;;16.30;1.00;;;;;;5095008;28;20048;-37
2023/03/17 03:50:49;;;;;;;3.42;2.13;;;16.30;1.00;;;;;;5094876;28;20525;-36
2023/03/17 03:53:16;;;;;;;2.33;1.38;;;16.30;1.00;;;;;;5094284;28;20036;-36
2023/03/17 03:55:43;;;;;;;2.58;1.40;;;16.30;1.00;;;;;;5094945;28;20493;-36
2023/03/17 03:58:10;;;;;;;1.52;1.38;;;16.20;1.00;;;;;;5094729;28;20051;-36
2023/03/17 04:00:37;;;;;;;2.10;1.23;;;16.20;1.00;;;;;;5094781;28;20042;-36
2023/03/17 04:03:03;;;;;;;1.88;1.08;;;16.20;1.00;;;;;;5094136;28;20048;-36
2023/03/17 04:05:30;;;;;;;5.32;2.20;;;16.20;1.00;;;;;;5094688;28;20557;-36
2023/03/17 04:07:57;;;;;;;2.42;1.48;;;16.20;1.00;;;;;;5094819;28;20384;-36
2023/03/17 04:10:24;;;;;;;2.67;1.48;;;16.20;1.00;;;;;;5094628;28;20502;-36
2023/03/17 04:12:51;;;;;;;3.58;1.67;;;16.20;1.00;;;;;;5093870;28;20044;-36
2023/03/17 04:15:19;;;;;;;3.28;1.58;;;16.20;1.00;;;;;;5094263;28;20036;-36
2023/03/17 04:17:46;;;;;;;3.00;1.40;;;16.20;1.00;;;;;;5094519;28;20479;-36
2023/03/17 04:20:14;;;;;;;3.75;1.77;;;16.20;1.00;;;;;;5094377;28;20051;-36
2023/03/17 04:22:42;;;;;;;2.22;1.02;;;16.10;1.00;;;;;;5093713;28;20048;-36
2023/03/17 04:25:10;;;;;;;2.75;1.45;;;16.10;1.00;;;;;;5094359;28;20086;-36
2023/03/17 04:27:37;;;;;;;2.85;1.90;;;16.10;1.00;;;;;;5094192;28;20047;-36
2023/03/17 04:30:05;;;;;;;2.35;1.45;;;16.10;1.00;;;;;;5094174;28;20044;-36
2023/03/17 04:32:34;;;;;;;2.67;1.50;;;16.10;1.00;;;;;;5093775;28;20051;-37
2023/03/17 04:35:01;;;;;;;2.60;1.60;;;16.10;1.00;;;;;;5075940;28;20072;-36
2023/03/17 04:37:28;;;;;;;3.40;1.20;;;16.10;1.00;;;;;;5094057;28;20050;-37
2023/03/17 04:39:55;;;;;;;2.13;1.10;;;16.10;1.00;;;;;;5094156;28;20052;-35
2023/03/17 04:42:22;;;;;;;3.58;1.15;;;16.00;1.00;;;;;;5093510;28;20048;-35
2023/03/17 04:44:49;;;;;;;2.75;1.67;;;16.00;1.00;;;;;;5093671;28;20089;-37
2023/03/17 04:47:15;;;;;;;2.90;1.92;;;16.00;1.00;;;;;;5093863;28;20089;-38
2023/03/17 04:49:42;;;;;;;2.40;1.30;;;16.00;1.00;;;;;;5093893;28;20478;-37
2023/03/17 04:52:09;;;;;;;4.82;1.40;;;16.00;1.00;;;;;;5092993;28;20044;-37
2023/03/17 04:54:36;;;;;;;1.77;1.02;;;16.00;1.00;;;;;;5093361;28;20051;-37
2023/03/17 04:57:03;;;;;;;2.55;1.50;;;16.00;1.00;;;;;;5093665;28;20048;-37
2023/03/17 04:59:30;;;;;;;2.80;1.60;;;16.00;1.00;;;;;;5093571;28;20086;-38
2023/03/17 05:01:56;;;;;;;1.95;1.23;;;16.00;1.00;;;;;;5093641;28;20101;-38
2023/03/17 05:04:23;;;;;;;2.60;1.25;;;16.00;1.00;;;;;;5093002;28;20056;-37
2023/03/17 05:06:58;;;;;;;3.45;1.80;;;16.00;1.00;;;;;;5093637;28;20047;-38
2023/03/17 05:09:25;;;;;;;3.42;1.58;;;15.90;1.00;;;;;;5083784;28;20493;-37
2023/03/17 05:11:52;;;;;;;2.13;1.58;;;15.90;1.00;;;;;;5072915;28;20063;-38
2023/03/17 05:14:19;;;;;;;2.22;1.58;;;15.90;1.00;;;;;;5089233;28;20236;-38
2023/03/17 05:16:47;;;;;;;2.40;1.50;;;15.90;1.00;;;;;;5093439;28;20032;-38
2023/03/17 05:19:14;;;;;;;2.95;1.67;;;15.90;1.00;;;;;;5075252;28;20127;-38
2023/03/17 05:21:42;;;;;;;9.18;1.88;;;15.90;1.00;;;;;;5093362;28;20067;-38
2023/03/17 05:24:09;;;;;;;7.47;1.92;;;15.90;1.00;;;;;;5092385;28;20109;-38
2023/03/17 05:26:36;;;;;;;9.70;1.77;;;15.90;1.00;;;;;;5085893;28;20033;-37
2023/03/17 05:29:03;;;;;;;4.78;1.60;;;15.90;1.00;;;;;;5081336;28;20132;-38
2023/03/17 05:31:30;;;;;;;4.57;1.73;;;15.90;1.00;;;;;;5092305;28;20036;-38
2023/03/17 05:33:57;;;;;;;6.15;2.40;;;15.90;1.00;;;;;;5092314;28;20044;-38
2023/03/17 05:36:24;;;;;;;2.55;1.52;;;15.90;1.00;;;;;;5092934;28;20048;-38
2023/03/17 05:38:51;;;;;;;3.17;1.50;;;15.90;1.00;;;;;;5092998;28;20380;-38
2023/03/17 05:41:18;;;;;;;4.88;1.90;;;15.80;1.00;;;;;;5093116;28;20113;-38
2023/03/17 05:43:45;;;;;;;3.92;1.58;;;15.90;1.00;;;;;;5092273;28;20044;-38
2023/03/17 05:46:12;;;;;;;4.30;1.88;;;15.80;1.00;;;;;;5092773;28;20044;-38
2023/03/17 05:48:39;;;;;;;3.45;1.17;;;15.80;1.00;;;;;;5092698;28;20047;-38
2023/03/17 05:51:06;;;;;;;3.05;1.65;;;15.80;1.00;;;;;;5092551;28;20048;-38
2023/03/17 05:53:34;;;;;;;2.25;1.27;;;15.80;1.00;;;;;;5091410;28;20059;-38
2023/03/17 05:56:01;;;;;;;4.10;1.33;;;15.80;1.00;;;;;;5084616;28;20431;-38
2023/03/17 05:58:28;;;;;;;2.47;1.63;;;15.80;1.00;;;;;;5074428;28;20713;-38
2023/03/17 06:00:55;;;;;;;2.60;1.40;;;15.80;1.00;;;;;;5073794;28;20399;-37
2023/03/17 06:03:22;;;;;;;2.63;1.30;;;15.80;1.00;;;;;;5090782;28;20109;-38
2023/03/17 06:05:49;;;;;;;3.05;1.95;;;15.70;1.00;;;;;;5087874;28;20046;-38
2023/03/17 06:08:16;;;;;;;3.03;1.27;;;15.80;1.00;;;;;;5072028;28;20040;-35
2023/03/17 06:10:43;;;;;;;3.63;1.45;;;15.80;1.00;;;;;;5070280;28;20457;-37
2023/03/17 06:13:10;;;;;;;3.88;1.75;;;15.70;1.00;;;;;;5077499;28;20093;-37
2023/03/17 06:15:37;;;;;;;4.68;1.80;;;15.70;1.00;;;;;;5092288;28;20544;-37
2023/03/17 06:18:04;;;;;;;2.85;1.73;;;15.70;1.00;;;;;;5092008;28;20043;-37
2023/03/17 06:20:33;;;;;;;3.03;1.90;;;15.70;1.00;;;;;;5092269;28;20048;-37
2023/03/17 06:23:00;;;;;;;2.83;1.40;;;15.70;1.00;;;;;;5091446;28;20094;-37
2023/03/17 06:25:33;;;;;;;5.18;2.22;;;15.70;1.00;;;;;;5074034;28;20052;-37
2023/03/17 06:28:02;;;;;;;2.53;1.48;;;15.70;1.00;;;;;;5092029;28;20258;-37
2023/03/17 06:30:33;;;;;;;4.00;1.90;;;15.70;1.00;;;;;;5092111;28;20074;-37
2023/03/17 06:33:01;;;;;;;2.47;1.65;;;15.70;1.00;;;;;;5091106;28;20044;-37
2023/03/17 06:35:29;;;;;;;3.88;1.65;;;15.60;1.00;;;;;;5092107;28;20101;-37
2023/03/17 06:37:56;;;;;;;3.28;1.52;;;15.60;1.00;;;;;;5091963;28;20123;-37
2023/03/17 06:40:23;;;;;;;2.25;1.58;;;15.60;1.00;;;;;;5091966;28;20097;-37
2023/03/17 06:42:50;;;;;;;2.35;1.17;;;15.60;1.00;;;;;;5091114;28;20504;-37
2023/03/17 06:45:17;;;;;;;2.30;1.38;;;15.60;1.00;;;;;;5091792;28;20048;-37
2023/03/17 06:47:43;;;;;;;4.50;2.95;;;15.60;1.00;;;;;;5091657;28;20040;-37
2023/03/17 06:50:11;;;;;;;2.78;1.58;;;15.60;1.00;;;;;;5091713;28;20075;-37
2023/03/17 06:52:38;;;;;;;2.65;1.58;;;15.60;1.00;;;;;;5090892;28;20101;-37
2023/03/17 06:55:07;;;;;;;3.33;1.92;;;15.60;1.00;;;;;;5091712;28;20459;-37
2023/03/17 06:57:42;;;;;;;3.13;1.67;;;15.60;1.00;;;;;;5091665;28;20438;-67
2023/03/17 07:00:11;;;;;;;3.00;1.58;;;15.60;1.00;;;;;;5067868;28;20123;-37
2023/03/17 07:02:38;;;;;;;2.78;1.52;;;15.60;1.00;;;;;;5070693;28;20045;-35
2023/03/17 07:05:06;;;;;;;4.07;1.90;;;15.60;1.00;;;;;;5071681;28;20040;-35
2023/03/17 07:07:34;;;;;;;2.95;1.73;;;15.60;1.00;;;;;;5071271;28;20041;-38
2023/03/17 07:10:02;;;;;;;3.55;1.60;;;15.60;1.00;;;;;;5071566;28;20041;-35
2023/03/17 07:12:29;;;;;;;4.30;1.63;;;15.50;1.00;;;;;;5053049;28;20044;-35
2023/03/17 07:14:56;;;;;;;3.30;1.80;;;15.50;1.00;;;;;;5072694;28;20058;-36
2023/03/17 07:17:24;;;;;;;3.30;1.90;;;15.60;1.00;;;;;;5075208;28;20484;-36
2023/03/17 07:19:51;;;;;;;3.67;1.90;;;15.50;1.00;;;;;;5075355;28;20036;-36
2023/03/17 07:22:18;;;;;;;2.55;1.60;;;15.60;1.00;;;;;;5074809;28;20049;-36
2023/03/17 07:24:45;;;;;;;4.03;1.90;;;15.50;1.00;;;;;;5074858;28;20060;-36
2023/03/17 07:27:13;;;;;;;3.35;2.15;;;15.60;1.00;;;;;;5075058;28;20044;-36
2023/03/17 07:29:40;;;;;;;5.63;2.10;;;15.50;1.00;;;;;;5075080;28;20559;-35
2023/03/17 07:32:08;;;;;;;3.33;1.92;;;15.50;1.00;;;;;;5074979;28;20059;-35
2023/03/17 07:34:36;;;;;;;2.42;1.63;;;15.50;1.00;;;;;;5074577;28;20048;-36
2023/03/17 07:37:04;;;;;;;3.30;2.10;;;15.50;1.00;;;;;;5074975;28;20415;-36
2023/03/17 07:39:30;;;;;;;2.92;1.52;;;15.50;1.00;;;;;;5074794;28;20037;-36
2023/03/17 07:41:57;;;;;;;6.28;1.98;;;15.50;1.00;;;;;;5074983;28;20044;-37
2023/03/17 07:44:24;;;;;;;2.53;1.95;;;15.50;1.00;;;;;;5074156;28;20052;-36
2023/03/17 07:46:51;;;;;;;2.75;2.08;;;15.50;1.00;;;;;;5074862;28;20534;-36
2023/03/17 07:49:19;;;;;;;3.63;2.38;;;15.50;1.00;;;;;;5074755;28;20090;-35
2023/03/17 07:52:09;;;;;;;2.55;1.40;;;15.50;1.00;;;;;;5074588;28;20048;-36
2023/03/17 07:54:36;;;;;;;3.10;1.83;;;15.50;1.00;;;;;;5074227;28;20037;-36
2023/03/17 07:57:04;;;;;;;3.58;2.20;;;15.50;1.00;;;;;;5074549;28;20056;-36
2023/03/17 07:59:33;;;;;;;3.30;2.03;;;15.40;1.00;;;;;;5073994;28;20047;-36
2023/03/17 08:02:00;;;;;;;4.93;1.92;;;15.50;1.00;;;;;;5074514;28;20036;-36
2023/03/17 08:04:27;;;;;;;3.85;1.65;;;15.50;1.00;;;;;;5073659;28;20446;-36
2023/03/17 08:06:55;;;;;;;2.30;1.70;;;15.50;1.00;;;;;;5074235;28;20044;-36
2023/03/17 08:09:22;;;;;;;2.78;1.63;;;15.50;1.00;;;;;;5074293;28;20423;-37
2023/03/17 08:11:50;;;;;;;2.88;1.92;;;15.50;1.00;;;;;;5074671;28;20147;-37
2023/03/17 08:14:17;;;;;;;3.67;1.92;;;15.50;1.00;;;;;;5073513;28;20048;-35
2023/03/17 08:16:44;;;;;;;2.28;1.60;;;15.50;1.00;;;;;;5074283;28;20040;-35
2023/03/17 08:19:11;;;;;;;3.70;1.90;;;15.40;1.00;;;;;;5056273;28;20090;-36
2023/03/17 08:21:38;;;;;;;5.32;2.05;;;15.40;1.00;;;;;;5074239;28;20044;-35
2023/03/17 08:24:05;;;;;;;3.35;1.85;;;15.40;1.00;;;;;;5073432;28;20044;-35
2023/03/17 08:26:32;;;;;;;4.28;1.80;;;15.40;1.00;;;;;;5072976;28;20526;-35
2023/03/17 08:29:00;;;;;;;4.47;2.65;;;15.40;1.00;;;;;;5073923;28;20492;-36
2023/03/17 08:31:27;;;;;;;3.15;1.65;;;15.40;1.00;;;;;;5074041;28;20087;-35
2023/03/17 08:33:55;;;;;;;3.50;1.73;;;15.40;1.00;;;;;;5073163;28;20093;-36
2023/03/17 08:36:23;;;;;;;3.53;2.28;;;15.40;1.00;;;;;;5073953;28;20128;-36
2023/03/17 08:38:49;;;;;;;2.80;1.67;;;15.40;1.00;;;;;;5073784;28;20044;-36
2023/03/17 08:41:19;;;;;;;2.85;2.00;;;15.40;1.00;;;;;;5073917;28;20127;-36
2023/03/17 08:43:47;;;;;;;2.63;1.90;;;15.40;1.00;;;;;;5055148;28;20081;-36
2023/03/17 08:46:20;;;;;;;3.22;1.73;;;15.40;1.00;;;;;;5073649;28;20049;-36
2023/03/17 08:48:49;;;;;;;3.78;2.05;;;15.40;1.00;;;;;;5073592;28;20550;-36
2023/03/17 08:51:17;;;;;;;2.55;2.00;;;15.40;1.00;;;;;;5073621;28;20047;-36
2023/03/17 08:53:47;;;;;;;4.18;2.25;;;15.40;1.00;;;;;;5072598;28;20215;-36
2023/03/17 08:56:15;;;;;;;2.63;1.88;;;15.40;1.00;;;;;;5073615;28;20492;-36
2023/03/17 08:58:42;;;;;;;5.78;2.72;;;15.40;1.00;;;;;;5073067;28;20048;-34
2023/03/17 09:01:09;;;;;;;3.50;2.10;;;15.50;1.00;;;;;;5073485;28;20043;-35
2023/03/17 09:03:38;;;;;;;3.70;2.05;;;15.50;1.00;;;;;;5072623;28;20510;-36
2023/03/17 09:06:06;;;;;;;3.85;2.20;;;15.50;1.00;;;;;;5073395;28;20048;-35
2023/03/17 09:08:34;;;;;;;3.95;1.98;;;15.60;1.00;;;;;;5073091;28;20075;-35
2023/03/17 09:11:04;;;;;;;3.13;1.70;;;15.60;1.00;;;;;;5073120;28;20051;-35
2023/03/17 09:13:32;;;;;;;8.20;1.98;;;15.60;1.00;;;;;;5072210;28;20037;-35
2023/03/17 09:16:00;;;;;;;3.47;1.70;;;15.70;1.00;;;;;;5073197;28;20075;-36
2023/03/17 09:18:27;;;;;;;4.82;1.98;;;15.70;1.00;;;;;;5072960;28;20044;-36
2023/03/17 09:20:53;;;;;;;2.70;1.98;;;15.70;1.00;;;;;;5073066;28;20045;-36
2023/03/17 09:23:22;;;;;;;4.78;2.25;;;15.80;1.00;;;;;;5072028;28;20130;-36
2023/03/17 09:25:48;;;;;;;3.70;2.15;;;15.80;1.00;;;;;;5072968;28;20044;-36
2023/03/17 09:28:16;;;;;;;2.17;1.40;;;15.80;1.00;;;;;;5072613;28;20049;-36
2023/03/17 09:30:43;;;;;;;4.65;2.17;;;15.80;1.00;;;;;;5072725;28;20045;-36
2023/03/17 09:33:11;;;;;;;4.72;1.50;;;15.90;1.00;;;;;;5071990;28;20049;-36
2023/03/17 09:35:39;;;;;;;2.83;1.60;;;15.90;1.00;;;;;;5072881;28;20036;-36
2023/03/17 09:38:07;;;;;;;4.25;2.35;;;15.90;1.00;;;;;;5072145;28;20480;-36
2023/03/17 09:40:47;;;;;;;3.03;2.17;;;16.00;1.00;;;;;;5072760;28;20035;-36
2023/03/17 09:43:47;;;;;;;2.65;1.75;;;16.00;1.00;;;;;;5071842;28;20075;-35
2023/03/17 09:46:47;;;;;;;2.55;1.63;;;16.10;1.00;;;;;;5072478;28;20048;-35
2023/03/17 09:49:18;;;;;;;2.35;1.60;;;16.00;1.00;;;;;;5072481;28;20121;-35
2023/03/17 09:51:46;;;;;;;3.78;1.80;;;16.10;1.00;;;;;;5072505;28;20102;-35
2023/03/17 09:54:26;;;;;;;3.42;1.83;;;16.10;1.00;;;;;;5071487;28;20045;-35
2023/03/17 09:57:18;;;;;;;3.53;1.83;;;16.20;1.00;;;;;;5072236;28;20041;-35
2023/03/17 09:59:50;;;;;;;3.22;2.05;;;16.20;1.00;;;;;;5072052;28;20040;-36
2023/03/17 10:02:21;;;;;;;3.92;2.88;;;16.20;1.00;;;;;;5071919;28;20060;-35
2023/03/17 10:04:48;;;;;;;3.63;2.28;;;16.30;1.00;;;;;;5071977;28;20389;-35
2023/03/17 10:07:21;;;;;;;3.83;2.30;;;16.30;1.00;;;;;;5072035;28;20057;-36
2023/03/17 10:10:02;;;;;;;4.83;2.73;;;16.30;1.00;;;;;;5072152;28;20048;-36
2023/03/17 10:12:31;;;;;;;2.45;1.73;;;16.40;1.00;;;;;;5071634;28;20044;-35
2023/03/17 10:15:10;;;;;;;3.67;1.85;;;16.40;1.00;;;;;;5071664;28;20478;-36
2023/03/17 10:17:41;;;;;;;3.45;2.00;;;16.40;1.00;;;;;;5053994;28;20416;-35
2023/03/17 10:20:36;;;;;;;3.58;2.10;;;16.40;1.00;;;;;;5072325;28;20041;-35
2023/03/17 10:23:08;;;;;;;3.58;2.00;;;16.50;1.00;;;;;;5068750;28;20451;-35
2023/03/17 10:25:36;;;;;;;4.72;2.20;;;16.40;1.00;;;;;;5072097;28;20420;-35
2023/03/17 10:28:10;;;;;;;4.43;2.10;;;16.40;1.00;;;;;;5071613;28;20484;-35
2023/03/17 10:30:38;;;;;;;4.82;2.33;;;16.50;1.00;;;;;;5072050;28;20571;-35
2023/03/17 10:33:05;;;;;;;4.00;2.15;;;16.40;1.00;;;;;;5070916;28;20033;-35
2023/03/17 10:35:35;;;;;;;4.97;2.13;;;16.40;1.00;;;;;;5053872;28;20036;-35
2023/03/17 10:38:17;;;;;;;2.95;1.73;;;16.50;1.00;;;;;;5071708;28;20043;-36
2023/03/17 10:40:47;;;;;;;4.40;2.13;;;16.50;1.00;;;;;;5071694;28;20067;-35
2023/03/17 10:43:21;;;;;;;3.75;2.00;;;16.50;1.00;;;;;;5071022;28;20459;-35
2023/03/17 10:46:03;;;;;;;3.42;2.10;;;16.50;1.00;;;;;;5071796;28;20048;-35
2023/03/17 10:48:35;;;;;;;3.22;2.17;;;16.50;1.00;;;;;;5071931;28;20045;-36
2023/03/17 10:51:09;;;;;;;3.33;1.95;;;16.50;1.00;;;;;;5077861;28;20040;-35
2023/03/17 10:53:42;;;;;;;3.88;2.20;;;16.50;1.00;;;;;;5059461;28;20040;-35
2023/03/17 10:56:19;;;;;;;5.03;2.10;;;16.50;1.00;;;;;;5078373;28;20485;-35
2023/03/17 10:58:48;;;;;;;4.43;2.15;;;16.50;1.00;;;;;;5078041;28;20051;-35
2023/03/17 11:01:18;;;;;;;3.20;2.35;;;16.50;1.00;;;;;;5078250;28;20068;-35
2023/03/17 11:03:46;;;;;;;2.67;1.80;;;16.50;1.00;;;;;;5077308;28;20048;-35
2023/03/17 11:06:16;;;;;;;2.50;1.73;;;16.50;1.00;;;;;;5078189;28;20522;-35
2023/03/17 11:08:49;;;;;;;2.75;2.08;;;16.50;1.00;;;;;;5077975;28;20507;-36
2023/03/17 11:11:30;;;;;;;4.65;2.42;;;16.50;1.00;;;;;;5078223;28;20442;-36
2023/03/17 11:14:03;;;;;;;3.88;2.35;;;16.50;1.00;;;;;;5077095;28;20130;-35
2023/03/17 11:16:32;;;;;;;4.35;2.33;;;16.50;1.00;;;;;;5078475;28;20111;-36
2023/03/17 11:19:01;;;;;;;2.90;1.65;;;16.60;1.00;;;;;;5078067;28;20146;-35
2023/03/17 11:22:03;;;;;;;4.68;2.60;;;16.50;1.00;;;;;;5078363;28;20036;-35
2023/03/17 11:24:32;;;;;;;4.18;2.58;;;16.50;1.00;;;;;;5063445;28;20048;-35
2023/03/17 11:27:05;;;;;;;6.03;2.50;;;16.50;1.00;;;;;;5078063;28;20131;-36
2023/03/17 11:29:38;;;;;;;5.60;2.63;;;16.50;1.00;;;;;;5078009;28;20047;-36
2023/03/17 11:32:31;;;;;;;4.22;1.92;;;16.50;1.00;;;;;;5077933;28;20037;-36
2023/03/17 11:35:38;;;;;;;3.72;2.38;;;16.50;1.00;;;;;;5077600;28;20036;-36
2023/03/17 11:38:27;;;;;;;3.58;2.30;;;16.50;1.00;;;;;;4996042;28;20046;-35
2023/03/17 11:41:30;;;;;;;4.47;2.33;;;16.50;1.00;;;;;;5073891;28;20052;-35
2023/03/17 11:44:12;;;;;;;5.78;2.70;;;16.50;1.00;;;;;;5077045;28;20048;-36
2023/03/17 11:47:07;;;;;;;3.58;2.40;;;16.50;1.00;;;;;;5077956;28;20139;-35
2023/03/17 11:49:36;;;;;;;4.35;2.45;;;16.50;1.00;;;;;;5077676;28;20068;-35
2023/03/17 11:52:21;;;;;;;3.92;2.70;;;16.50;1.00;;;;;;5077875;28;20407;-35
2023/03/17 11:54:53;;;;;;;3.55;2.22;;;16.50;1.00;;;;;;5077337;28;20041;-35
2023/03/17 11:57:47;;;;;;;4.43;2.95;;;16.40;1.00;;;;;;5078110;28;20036;-35
2023/03/17 12:00:55;;;;;;;3.95;2.10;;;16.40;1.00;;;;;;5077467;28;20064;-35
2023/03/17 12:03:47;;;;;;;5.90;2.53;;;16.40;1.00;;;;;;5073771;28;20404;-35
2023/03/17 12:06:20;;;;;;;2.97;2.67;;;16.40;1.00;;;;;;5074315;28;20044;-35
2023/03/17 12:09:02;;;;;;;3.03;2.15;;;16.40;1.00;;;;;;5056548;28;20049;-35
2023/03/17 12:11:35;;;;;;;4.88;2.22;;;16.40;1.00;;;;;;5074511;28;20061;-35
2023/03/17 12:14:12;;;;;;;3.78;2.38;;;16.40;1.00;;;;;;5073393;28;20121;-36
2023/03/17 12:17:09;;;;;;;6.18;2.40;;;16.40;1.00;;;;;;5074308;28;20044;-36
2023/03/17 12:19:45;;;;;;;3.75;2.10;;;16.40;1.00;;;;;;5074427;28;20051;-36
2023/03/17 12:22:32;;;;;;;4.55;2.08;;;16.40;1.00;;;;;;5074089;28;20399;-36
2023/03/17 12:25:24;;;;;;;3.30;2.22;;;16.40;1.00;;;;;;5073662;28;20450;-36
2023/03/17 12:28:23;;;;;;;3.97;2.22;;;16.40;1.00;;;;;;5073999;28;20116;-36
2023/03/17 12:31:07;;;;;;;3.67;2.28;;;16.40;1.00;;;;;;5073302;28;20484;-36
2023/03/17 12:33:59;;;;;;;3.55;2.20;;;16.40;1.00;;;;;;5073038;28;20041;-36
2023/03/17 12:36:26;;;;;;;5.03;2.50;;;16.40;1.00;;;;;;5073981;28;20059;-36
2023/03/17 12:39:09;;;;;;;3.72;2.45;;;16.40;1.00;;;;;;5073686;28;20650;-36
2023/03/17 12:41:47;;;;;;;5.25;2.92;;;16.40;1.00;;;;;;5073748;28;20713;-36
2023/03/17 12:44:34;;;;;;;6.20;2.72;;;16.40;1.00;;;;;;5072939;28;20515;-36
2023/03/17 12:47:18;;;;;;;4.45;2.95;;;16.40;1.00;;;;;;5073853;28;20044;-36
2023/03/17 12:50:16;;;;;;;5.93;3.20;;;16.40;1.00;;;;;;5073617;28;20044;-36
2023/03/17 12:52:51;;;;;;;4.05;2.58;;;16.30;1.00;;;;;;5072665;28;20139;-36
2023/03/17 12:55:24;;;;;;;5.22;3.22;;;16.30;1.00;;;;;;5074025;28;20086;-36
2023/03/17 13:00:32;;;;;;;5.57;2.80;;;16.40;1.00;;;;;;5000530;28;20061;-38
2023/03/17 13:03:24;;;;;;;4.63;2.67;;;16.40;1.00;;;;;;4993438;28;20649;-37
2023/03/17 13:05:58;;;;;;;3.80;2.78;;;16.40;1.00;;;;;;4994203;28;20056;-38
2023/03/17 13:08:30;;;;;;;;;;;16.40;1.00;;;;;;4994187;28;20457;-37
2023/03/17 13:11:17;;;;;;;6.35;2.67;;;16.30;1.00;;;;;;4994168;28;19928;-38
2023/03/17 13:13:53;;;;;;;8.52;3.58;;;16.30;1.00;;;;;;4992570;28;20050;-37
2023/03/17 13:16:28;;;;;;;7.07;3.05;;;16.30;1.00;;;;;;4993763;28;20042;-38
2023/03/17 13:19:21;;;;;;;5.43;2.97;;;16.30;1.00;;;;;;4993586;28;20038;-37
2023/03/17 13:21:56;;;;;;;5.43;2.83;;;16.30;1.00;;;;;;4993634;28;20452;-37